Time;durP1;ratioP1;P1;durP2;ratioP2;P2;SDS_P1;SDS_P2;PMS_P1;PMS_P2;Temp;Humidity;BMP_temperature;BMP_pressure;BME280_temperature;BME280_humidity;BME280_pressure;Samples;Min_cycle;Max_cycle;Signal;HPM_P1;HPM_P2
2022/01/10 00:02:24;;;;;;;39.53;10.75;;;;;;;;;;5073746;28;20048;-80
2022/01/10 00:04:50;;;;;;;41.33;9.77;;;;;;;;;;5071177;28;20059;-80
2022/01/10 00:07:17;;;;;;;38.53;10.02;;;;;;;;;;5071018;28;20400;-80
2022/01/10 00:09:43;;;;;;;41.78;10.40;;;;;;;;;;5072259;28;20040;-80
2022/01/10 00:12:09;;;;;;;33.53;10.30;;;;;;;;;;5072020;28;20052;-79
2022/01/10 00:14:35;;;;;;;36.53;10.43;;;;;;;;;;5072182;28;20033;-81
2022/01/10 00:17:02;;;;;;;31.50;10.55;;;;;;;;;;5071745;28;20036;-81
2022/01/10 00:19:28;;;;;;;31.40;10.75;;;;;;;;;;5071508;28;20040;-82
2022/01/10 00:21:54;;;;;;;37.55;11.45;;;;;;;;;;5071501;28;20040;-80
2022/01/10 00:24:20;;;;;;;42.55;10.82;;;;;;;;;;5069987;28;20048;-80
2022/01/10 00:26:46;;;;;;;38.42;11.13;;;;;;;;;;5071811;28;20501;-80
2022/01/10 00:29:12;;;;;;;46.47;11.10;;;;;;;;;;5070667;28;20093;-80
2022/01/10 00:31:38;;;;;;;30.50;10.95;;;;;;;;;;5072075;28;20044;-80
2022/01/10 00:34:05;;;;;;;38.22;11.00;;;;;;;;;;5053101;28;20064;-80
2022/01/10 00:36:31;;;;;;;33.40;11.35;;;;;;;;;;5070091;28;20084;-80
2022/01/10 00:38:57;;;;;;;43.20;12.25;;;;;;;;;;5071094;28;20059;-80
2022/01/10 00:41:23;;;;;;;33.58;10.05;;;;;;;;;;5071695;28;20041;-80
2022/01/10 00:43:51;;;;;;;38.15;11.00;;;;;;;;;;5070342;28;20044;-80
2022/01/10 00:46:17;;;;;;;38.60;10.80;;;;;;;;;;5071373;28;20062;-82
2022/01/10 00:48:43;;;;;;;36.00;10.05;;;;;;;;;;5071481;28;20044;-80
2022/01/10 00:51:10;;;;;;;29.02;9.65;;;;;;;;;;5071079;28;20055;-80
2022/01/10 00:53:36;;;;;;;34.65;9.02;;;;;;;;;;5070429;28;20044;-82
2022/01/10 00:56:02;;;;;;;26.77;8.10;;;;;;;;;;5071473;28;20045;-82
2022/01/10 00:58:28;;;;;;;29.52;10.07;;;;;;;;;;5053151;28;20036;-82
2022/01/10 01:00:54;;;;;;;22.25;8.93;;;;;;;;;;5070217;28;20538;-82
2022/01/10 01:03:20;;;;;;;26.25;8.68;;;;;;;;;;5071268;28;20041;-82
2022/01/10 01:05:46;;;;;;;32.78;9.38;;;;;;;;;;5070559;28;20072;-82
2022/01/10 01:08:13;;;;;;;36.30;9.75;;;;;;;;;;5071125;28;20044;-82
2022/01/10 01:16:15;;;;;;;29.98;10.60;;;;;;;;;;5057725;28;20392;-80
2022/01/10 01:19:07;;;;;;;32.92;9.65;;;;;;;;;;5053471;28;20119;-79
2022/01/10 01:24:14;;;;;;;33.60;10.07;;;;;;;;;;5070308;28;20118;-79
2022/01/10 01:26:41;;;;;;;35.00;9.98;;;;;;;;;;5070459;28;20040;-80
2022/01/10 01:29:09;;;;;;;35.60;9.40;;;;;;;;;;5069251;28;20085;-79
2022/01/10 01:31:35;;;;;;;35.53;10.15;;;;;;;;;;5070677;28;20043;-79
2022/01/10 01:34:01;;;;;;;41.28;10.85;;;;;;;;;;5051504;28;20083;-82
2022/01/10 01:36:29;;;;;;;33.17;10.10;;;;;;;;;;5069782;28;20664;-82
2022/01/10 01:38:56;;;;;;;36.25;10.48;;;;;;;;;;5053178;28;20120;-79
2022/01/10 01:43:58;;;;;;;25.83;9.10;;;;;;;;;;5068871;28;20079;-80
2022/01/10 01:46:24;;;;;;;36.50;10.77;;;;;;;;;;5069203;28;20671;-82
2022/01/10 01:48:51;;;;;;;35.30;10.02;;;;;;;;;;5069407;28;20044;-79
2022/01/10 01:51:17;;;;;;;32.20;9.95;;;;;;;;;;5069088;28;20068;-79
2022/01/10 01:53:44;;;;;;;33.13;9.30;;;;;;;;;;5051926;28;20476;-79
2022/01/10 01:56:11;;;;;;;50.38;12.13;;;;;;;;;;5069609;28;20040;-79
2022/01/10 01:58:38;;;;;;;36.38;11.00;;;;;;;;;;5070115;28;20040;-79
2022/01/10 02:01:04;;;;;;;34.70;11.23;;;;;;;;;;5051661;28;20040;-82
2022/01/10 02:03:33;;;;;;;39.20;12.15;;;;;;;;;;5068856;28;20125;-81
2022/01/10 02:06:00;;;;;;;36.47;11.82;;;;;;;;;;5052209;28;20051;-82
2022/01/10 02:08:26;;;;;;;35.28;12.43;;;;;;;;;;5051806;28;20045;-79
2022/01/10 02:10:52;;;;;;;39.15;11.10;;;;;;;;;;5051892;28;20041;-79
2022/01/10 02:13:19;;;;;;;39.60;10.57;;;;;;;;;;5069754;28;20047;-79
2022/01/10 02:15:53;;;;;;;47.35;13.70;;;;;;;;;;5052008;28;20052;-79
2022/01/10 02:18:19;;;;;;;36.35;11.88;;;;;;;;;;5070177;28;20119;-82
2022/01/10 02:20:46;;;;;;;43.88;13.13;;;;;;;;;;5036316;28;20037;-82
2022/01/10 02:23:13;;;;;;;40.20;12.18;;;;;;;;;;5069659;28;20045;-81
2022/01/10 02:25:39;;;;;;;43.72;12.75;;;;;;;;;;5070171;28;20512;-81
2022/01/10 02:28:05;;;;;;;47.40;13.75;;;;;;;;;;5069047;28;20124;-82
2022/01/10 02:30:32;;;;;;;43.28;14.50;;;;;;;;;;5069216;28;20496;-78
2022/01/10 02:33:00;;;;;;;45.30;14.05;;;;;;;;;;5068281;28;20106;-78
2022/01/10 02:35:42;;;;;;;37.13;13.20;;;;;;;;;;5067865;28;20523;-78
2022/01/10 02:38:08;;;;;;;47.30;13.57;;;;;;;;;;5067851;28;20044;-78
2022/01/10 02:40:35;;;;;;;38.80;14.15;;;;;;;;;;5068390;28;20037;-78
2022/01/10 02:43:01;;;;;;;41.20;14.43;;;;;;;;;;5069869;28;20045;-78
2022/01/10 02:45:28;;;;;;;54.47;14.70;;;;;;;;;;5068541;28;20080;-81
2022/01/10 02:47:54;;;;;;;52.72;16.13;;;;;;;;;;5072129;28;20045;-81
2022/01/10 02:50:21;;;;;;;54.05;17.35;;;;;;;;;;5074305;28;20123;-81
2022/01/10 02:52:48;;;;;;;45.90;16.38;;;;;;;;;;5072363;28;20036;-81
2022/01/10 02:55:14;;;;;;;51.80;17.75;;;;;;;;;;5072104;28;20480;-78
2022/01/10 02:57:41;;;;;;;51.63;18.75;;;;;;;;;;5073163;28;20090;-77
2022/01/10 03:00:12;;;;;;;50.80;18.65;;;;;;;;;;5071994;28;20041;-78
2022/01/10 03:02:38;;;;;;;54.42;18.50;;;;;;;;;;5062233;28;20503;-78
2022/01/10 03:05:05;;;;;;;67.57;20.95;;;;;;;;;;5067589;28;20044;-81
2022/01/10 03:07:32;;;;;;;62.17;20.52;;;;;;;;;;5018870;28;20041;-81
2022/01/10 03:09:58;;;;;;;66.38;21.00;;;;;;;;;;5052306;28;20045;-81
2022/01/10 03:12:24;;;;;;;59.38;21.20;;;;;;;;;;5052076;28;20378;-81
2022/01/10 03:14:50;;;;;;;66.18;22.27;;;;;;;;;;5068506;28;20037;-81
2022/01/10 03:17:16;;;;;;;63.20;22.13;;;;;;;;;;5053904;28;20479;-81
2022/01/10 03:19:44;;;;;;;64.65;20.63;;;;;;;;;;5052613;28;20051;-77
2022/01/10 03:22:10;;;;;;;69.68;21.33;;;;;;;;;;5051226;28;21029;-78
2022/01/10 03:24:37;;;;;;;66.20;22.05;;;;;;;;;;5051860;28;20691;-77
2022/01/10 03:27:03;;;;;;;58.75;21.67;;;;;;;;;;5052514;28;20048;-77
2022/01/10 03:29:29;;;;;;;68.28;21.42;;;;;;;;;;5052199;28;20042;-81
2022/01/10 03:31:55;;;;;;;71.97;24.02;;;;;;;;;;5065551;28;20044;-81
2022/01/10 03:34:21;;;;;;;89.22;25.83;;;;;;;;;;5071038;28;20395;-81
2022/01/10 03:36:48;;;;;;;75.25;24.67;;;;;;;;;;5070300;28;20059;-81
2022/01/10 03:39:14;;;;;;;69.68;23.98;;;;;;;;;;5071465;28;20122;-81
2022/01/10 03:41:41;;;;;;;72.72;24.05;;;;;;;;;;5073034;28;20080;-81
2022/01/10 03:44:07;;;;;;;67.65;23.35;;;;;;;;;;5071189;28;20182;-77
2022/01/10 03:46:34;;;;;;;71.28;22.65;;;;;;;;;;5070653;28;20097;-77
2022/01/10 03:49:03;;;;;;;66.95;22.08;;;;;;;;;;5070677;28;20089;-81
2022/01/10 03:51:30;;;;;;;77.07;24.80;;;;;;;;;;5070804;28;20044;-81
2022/01/10 03:53:56;;;;;;;75.95;23.83;;;;;;;;;;5070715;28;20044;-81
2022/01/10 03:56:23;;;;;;;68.15;23.48;;;;;;;;;;5054443;28;20041;-81
2022/01/10 03:58:49;;;;;;;72.53;24.35;;;;;;;;;;5069293;28;20044;-81
2022/01/10 04:01:15;;;;;;;78.93;24.23;;;;;;;;;;5070753;28;20110;-81
2022/01/10 04:03:41;;;;;;;66.15;23.50;;;;;;;;;;5055132;28;20087;-81
2022/01/10 04:06:08;;;;;;;77.97;24.08;;;;;;;;;;5070927;28;20593;-78
2022/01/10 04:08:34;;;;;;;73.60;23.38;;;;;;;;;;5070778;28;20048;-77
2022/01/10 04:11:01;;;;;;;60.03;20.35;;;;;;;;;;5070210;28;20048;-77
2022/01/10 04:13:27;;;;;;;58.60;21.42;;;;;;;;;;5070847;28;20544;-77
2022/01/10 04:15:53;;;;;;;85.68;22.58;;;;;;;;;;5054255;28;20047;-80
2022/01/10 04:18:20;;;;;;;59.58;19.42;;;;;;;;;;5054852;28;20044;-77
2022/01/10 04:20:46;;;;;;;55.72;20.42;;;;;;;;;;5070427;28;20036;-77
2022/01/10 04:23:13;;;;;;;62.13;19.95;;;;;;;;;;5069832;28;20125;-81
2022/01/10 04:25:39;;;;;;;67.15;20.33;;;;;;;;;;5053496;28;20051;-81
2022/01/10 04:28:05;;;;;;;67.18;19.90;;;;;;;;;;5071458;28;20040;-80
2022/01/10 04:30:32;;;;;;;58.47;20.77;;;;;;;;;;5070589;28;20530;-81
2022/01/10 04:33:00;;;;;;;60.53;22.55;;;;;;;;;;5069365;28;20080;-81
2022/01/10 04:35:26;;;;;;;47.38;18.90;;;;;;;;;;5070026;28;20516;-81
2022/01/10 04:37:52;;;;;;;65.38;23.45;;;;;;;;;;5069608;28;20048;-77
2022/01/10 04:40:18;;;;;;;61.30;23.20;;;;;;;;;;5053957;28;20555;-77
2022/01/10 04:42:45;;;;;;;59.58;21.75;;;;;;;;;;5077006;28;20045;-77
2022/01/10 04:45:11;;;;;;;55.50;20.67;;;;;;;;;;5069780;28;20526;-77
2022/01/10 04:47:37;;;;;;;74.05;23.65;;;;;;;;;;5069908;28;20052;-76
2022/01/10 04:50:32;;;;;;;65.32;22.33;;;;;;;;;;5069960;28;20052;-81
2022/01/10 04:52:51;;;;;;;69.13;22.92;;;;;;;;;;5068388;28;20045;-81
2022/01/10 04:55:18;;;;;;;69.60;22.33;;;;;;;;;;5071718;28;20075;-81
2022/01/10 04:57:44;;;;;;;56.25;22.27;;;;;;;;;;5069729;28;20103;-77
2022/01/10 05:00:12;;;;;;;83.40;26.33;;;;;;;;;;5068944;28;20045;-77
2022/01/10 05:02:38;;;;;;;78.10;25.50;;;;;;;;;;5045928;28;20048;-77
2022/01/10 05:05:05;;;;;;;86.10;28.13;;;;;;;;;;5051699;28;20472;-77
2022/01/10 05:07:31;;;;;;;70.15;25.77;;;;;;;;;;5068124;28;20184;-77
2022/01/10 05:09:58;;;;;;;70.53;26.20;;;;;;;;;;5068981;28;20404;-77
2022/01/10 05:12:26;;;;;;;82.63;29.45;;;;;;;;;;5070498;28;20047;-77
2022/01/10 05:14:52;;;;;;;90.60;29.98;;;;;;;;;;5035790;28;20040;-77
2022/01/10 05:17:20;;;;;;;92.07;29.90;;;;;;;;;;5069656;28;20094;-76
2022/01/10 05:19:46;;;;;;;92.30;31.30;;;;;;;;;;5052842;28;20123;-76
2022/01/10 05:22:12;;;;;;;89.93;28.95;;;;;;;;;;5052569;28;20399;-76
2022/01/10 05:24:38;;;;;;;84.53;30.23;;;;;;;;;;5069440;28;20094;-76
2022/01/10 05:27:05;;;;;;;92.65;32.67;;;;;;;;;;5069349;28;20542;-82
2022/01/10 05:29:31;;;;;;;91.75;33.15;;;;;;;;;;5052978;28;20051;-76
2022/01/10 05:31:57;;;;;;;97.85;31.27;;;;;;;;;;5068955;28;20056;-82
2022/01/10 05:34:23;;;;;;;101.15;34.20;;;;;;;;;;5069034;28;20120;-81
2022/01/10 05:36:50;;;;;;;109.15;34.35;;;;;;;;;;5069313;28;20040;-82
2022/01/10 05:39:16;;;;;;;94.57;33.50;;;;;;;;;;5069303;28;20044;-82
2022/01/10 05:41:42;;;;;;;95.90;33.33;;;;;;;;;;5052981;28;20041;-82
2022/01/10 05:44:08;;;;;;;104.10;33.30;;;;;;;;;;5068946;28;20137;-82
2022/01/10 05:46:37;;;;;;;102.75;34.00;;;;;;;;;;5070157;28;20099;-82
2022/01/10 05:49:03;;;;;;;96.18;32.45;;;;;;;;;;5069703;28;20036;-76
2022/01/10 05:51:34;;;;;;;95.95;30.65;;;;;;;;;;5069446;28;20166;-82
2022/01/10 05:54:04;;;;;;;94.72;31.85;;;;;;;;;;5068480;28;20105;-82
2022/01/10 05:56:31;;;;;;;100.63;34.42;;;;;;;;;;5052086;28;20040;-82
2022/01/10 05:58:58;;;;;;;95.45;30.88;;;;;;;;;;5068854;28;20076;-83
2022/01/10 06:01:24;;;;;;;103.03;33.55;;;;;;;;;;5069212;28;20102;-77
2022/01/10 06:03:50;;;;;;;98.30;33.38;;;;;;;;;;5068810;28;20052;-77
2022/01/10 06:06:16;;;;;;;98.13;33.20;;;;;;;;;;5068523;28;20418;-77
2022/01/10 06:08:42;;;;;;;92.63;31.83;;;;;;;;;;5034766;28;20048;-76
2022/01/10 06:11:08;;;;;;;91.38;33.92;;;;;;;;;;5068174;28;20080;-76
2022/01/10 06:13:34;;;;;;;92.60;32.45;;;;;;;;;;5068510;28;20055;-77
2022/01/10 06:16:00;;;;;;;95.40;31.83;;;;;;;;;;5068523;28;20049;-76
2022/01/10 06:18:26;;;;;;;93.95;31.90;;;;;;;;;;5068753;28;20040;-76
2022/01/10 06:20:54;;;;;;;101.47;34.90;;;;;;;;;;5070755;28;20106;-82
2022/01/10 06:23:20;;;;;;;100.88;33.65;;;;;;;;;;5075744;28;20143;-83
2022/01/10 06:25:47;;;;;;;103.40;33.13;;;;;;;;;;5075487;28;20043;-82
2022/01/10 06:28:14;;;;;;;94.97;33.10;;;;;;;;;;5074988;28;20043;-76
2022/01/10 06:30:41;;;;;;;99.07;32.55;;;;;;;;;;5075038;28;20052;-76
2022/01/10 06:33:07;;;;;;;94.68;32.30;;;;;;;;;;5058196;28;20503;-77
2022/01/10 06:35:33;;;;;;;86.88;31.40;;;;;;;;;;5075128;28;20123;-77
2022/01/10 06:37:59;;;;;;;95.20;32.50;;;;;;;;;;5074717;28;20060;-77
2022/01/10 06:40:26;;;;;;;84.38;31.13;;;;;;;;;;5075106;28;20057;-82
2022/01/10 06:42:52;;;;;;;90.63;33.03;;;;;;;;;;5075947;28;20343;-82
2022/01/10 06:45:18;;;;;;;103.72;33.58;;;;;;;;;;5076645;28;20051;-82
2022/01/10 06:47:44;;;;;;;103.82;33.03;;;;;;;;;;5075502;28;20510;-77
2022/01/10 06:50:10;;;;;;;104.47;34.83;;;;;;;;;;5074629;28;20048;-82
2022/01/10 06:52:36;;;;;;;101.63;34.13;;;;;;;;;;5076402;28;20048;-82
2022/01/10 06:55:02;;;;;;;102.15;34.47;;;;;;;;;;5059721;28;20472;-82
2022/01/10 06:57:29;;;;;;;106.32;35.80;;;;;;;;;;5076081;28;20468;-82
2022/01/10 06:59:55;;;;;;;109.15;36.33;;;;;;;;;;5075566;28;20430;-82
2022/01/10 07:02:21;;;;;;;109.18;36.67;;;;;;;;;;5075472;28;20044;-82
2022/01/10 07:04:47;;;;;;;113.45;36.70;;;;;;;;;;5075515;28;20103;-82
2022/01/10 07:07:13;;;;;;;115.57;36.15;;;;;;;;;;5075127;28;20476;-82
2022/01/10 07:09:39;;;;;;;106.20;37.00;;;;;;;;;;5042869;28;20048;-82
2022/01/10 07:12:05;;;;;;;118.70;38.20;;;;;;;;;;5075224;28;20484;-82
2022/01/10 07:14:34;;;;;;;109.43;37.15;;;;;;;;;;5075374;28;20169;-82
2022/01/10 07:17:00;;;;;;;110.20;38.22;;;;;;;;;;5074606;28;20036;-76
2022/01/10 07:19:26;;;;;;;109.75;36.45;;;;;;;;;;5074476;28;20119;-76
2022/01/10 07:21:52;;;;;;;99.78;34.03;;;;;;;;;;5074319;28;20079;-81
2022/01/10 07:24:19;;;;;;;96.38;33.90;;;;;;;;;;5058012;28;20040;-82
2022/01/10 07:26:45;;;;;;;103.47;34.28;;;;;;;;;;5074784;28;20048;-81
2022/01/10 07:29:12;;;;;;;114.10;36.35;;;;;;;;;;5074255;28;20045;-76
2022/01/10 07:31:38;;;;;;;114.00;35.38;;;;;;;;;;5056912;28;20040;-75
2022/01/10 07:34:05;;;;;;;105.40;35.42;;;;;;;;;;5072169;28;20052;-76
2022/01/10 07:36:31;;;;;;;112.95;37.47;;;;;;;;;;5071012;28;20132;-76
2022/01/10 07:38:57;;;;;;;102.28;35.78;;;;;;;;;;5037628;28;20041;-81
2022/01/10 07:41:24;;;;;;;96.97;33.58;;;;;;;;;;5054319;28;20041;-82
2022/01/10 07:43:50;;;;;;;105.05;35.45;;;;;;;;;;5071605;28;20067;-82
2022/01/10 07:46:17;;;;;;;95.75;35.05;;;;;;;;;;5055051;28;20047;-81
2022/01/10 07:48:44;;;;;;;103.70;34.95;;;;;;;;;;5071543;28;20052;-76
2022/01/10 07:51:11;;;;;;;98.97;34.40;;;;;;;;;;5054702;28;20048;-76
2022/01/10 07:53:38;;;;;;;90.85;35.08;;;;;;;;;;5070784;28;20090;-76
2022/01/10 07:56:05;;;;;;;106.05;34.80;;;;;;;;;;5070744;28;20485;-76
2022/01/10 07:58:31;;;;;;;98.25;36.58;;;;;;;;;;5070952;28;20048;-82
2022/01/10 08:00:57;;;;;;;112.90;37.40;;;;;;;;;;5070641;28;20040;-82
2022/01/10 08:03:23;;;;;;;107.05;36.90;;;;;;;;;;5071271;28;20048;-82
2022/01/10 08:05:50;;;;;;;102.85;36.47;;;;;;;;;;5072053;28;20544;-77
2022/01/10 08:08:16;;;;;;;101.00;36.97;;;;;;;;;;5070273;28;20048;-76
2022/01/10 08:10:42;;;;;;;109.40;36.92;;;;;;;;;;5053716;28;20033;-76
2022/01/10 08:13:08;;;;;;;118.95;38.17;;;;;;;;;;5070216;28;20124;-77
2022/01/10 08:15:34;;;;;;;108.55;36.88;;;;;;;;;;5070211;28;20036;-77
2022/01/10 08:18:00;;;;;;;111.38;39.55;;;;;;;;;;5070120;28;20040;-77
2022/01/10 08:20:26;;;;;;;121.78;39.13;;;;;;;;;;5070726;28;20495;-82
2022/01/10 08:22:52;;;;;;;110.35;39.00;;;;;;;;;;5054949;28;20130;-82
2022/01/10 08:25:19;;;;;;;119.35;39.10;;;;;;;;;;5055135;28;20044;-77
2022/01/10 08:27:45;;;;;;;125.30;41.63;;;;;;;;;;5070186;28;20464;-77
2022/01/10 08:30:11;;;;;;;134.70;45.25;;;;;;;;;;5052942;28;20041;-77
2022/01/10 08:32:38;;;;;;;152.88;48.47;;;;;;;;;;5083268;28;20056;-78
2022/01/10 08:35:04;;;;;;;171.40;50.40;;;;;;;;;;5082638;28;20264;-78
2022/01/10 08:37:30;;;;;;;180.55;52.13;;;;;;;;;;5083418;28;20045;-77
2022/01/10 08:39:57;;;;;;;181.98;51.75;;;;;;;;;;5032946;28;20037;-77
2022/01/10 08:42:23;;;;;;;496.35;69.18;;;;;;;;;;5083363;28;20503;-78
2022/01/10 08:44:50;;;;;;;219.32;50.90;;;;;;;;;;5083547;28;20377;-77
2022/01/10 08:47:16;;;;;;;523.88;65.45;;;;;;;;;;5083174;28;20048;-78
2022/01/10 08:49:42;;;;;;;208.45;42.95;;;;;;;;;;5050050;28;20073;-82
2022/01/10 08:52:09;;;;;;;180.48;39.00;;;;;;;;;;5050692;28;20040;-82
2022/01/10 08:54:35;;;;;;;1409.40;107.95;;;;;;;;;;5083957;28;20564;-82
2022/01/10 08:57:02;;;;;;;60.92;29.98;;;;;;;;;;5051614;28;20033;-83
2022/01/10 08:59:28;;;;;;;79.47;27.70;;;;;;;;;;5034593;28;20492;-83
2022/01/10 09:01:56;;;;;;;57.38;24.15;;;;;;;;;;5082852;28;20037;-79
2022/01/10 09:04:22;;;;;;;221.40;32.53;;;;;;;;;;5083314;28;20413;-79
2022/01/10 09:06:49;;;;;;;39.22;18.08;;;;;;;;;;5066275;28;20053;-79
2022/01/10 09:09:15;;;;;;;31.30;18.38;;;;;;;;;;5048963;28;20147;-79
2022/01/10 09:11:41;;;;;;;44.17;18.52;;;;;;;;;;5082824;28;20116;-79
2022/01/10 09:14:07;;;;;;;30.02;16.15;;;;;;;;;;5031987;28;20481;-79
2022/01/10 09:16:34;;;;;;;31.75;17.40;;;;;;;;;;5065762;28;20130;-80
2022/01/10 09:19:00;;;;;;;165.82;24.85;;;;;;;;;;5082872;28;20068;-80
2022/01/10 09:21:26;;;;;;;25.13;14.80;;;;;;;;;;5051818;28;20052;-82
2022/01/10 09:23:52;;;;;;;29.50;16.33;;;;;;;;;;5084798;28;20048;-83
2022/01/10 09:26:18;;;;;;;28.25;14.95;;;;;;;;;;5084885;28;20544;-80
2022/01/10 09:28:44;;;;;;;21.25;13.48;;;;;;;;;;5082978;28;20049;-80
2022/01/10 09:31:12;;;;;;;25.15;13.95;;;;;;;;;;5058329;28;20101;-80
2022/01/10 09:33:38;;;;;;;24.77;13.75;;;;;;;;;;5071478;28;20040;-83
2022/01/10 09:36:04;;;;;;;23.30;14.55;;;;;;;;;;5071522;28;20102;-83
2022/01/10 09:38:30;;;;;;;23.10;13.98;;;;;;;;;;5072828;28;20432;-82
2022/01/10 09:40:56;;;;;;;21.35;13.68;;;;;;;;;;5070214;28;20100;-82
2022/01/10 09:43:23;;;;;;;21.02;13.52;;;;;;;;;;5054160;28;20037;-82
2022/01/10 09:45:51;;;;;;;21.00;13.38;;;;;;;;;;5053861;28;20120;-83
2022/01/10 09:48:17;;;;;;;22.60;13.93;;;;;;;;;;5070313;28;20036;-82
2022/01/10 09:50:44;;;;;;;25.92;13.30;;;;;;;;;;5053458;28;20071;-81
2022/01/10 09:53:10;;;;;;;19.70;13.20;;;;;;;;;;5069120;28;20052;-81
2022/01/10 09:55:37;;;;;;;19.45;12.63;;;;;;;;;;5069919;28;20047;-82
2022/01/10 09:58:03;;;;;;;22.08;13.48;;;;;;;;;;5068987;28;20488;-82
2022/01/10 10:00:30;;;;;;;20.02;13.02;;;;;;;;;;5070337;28;20040;-80
2022/01/10 10:02:56;;;;;;;23.92;12.50;;;;;;;;;;5069290;28;20041;-80
2022/01/10 10:05:22;;;;;;;18.00;12.30;;;;;;;;;;5069042;28;20068;-80
2022/01/10 10:07:48;;;;;;;22.95;12.60;;;;;;;;;;5069339;28;20522;-81
2022/01/10 10:10:15;;;;;;;18.92;12.07;;;;;;;;;;5070111;28;20036;-81
2022/01/10 10:12:47;;;;;;;18.60;12.45;;;;;;;;;;5069468;28;20079;-82
2022/01/10 10:15:17;;;;;;;21.00;12.38;;;;;;;;;;5068916;28;20048;-81
2022/01/10 10:17:43;;;;;;;16.90;11.82;;;;;;;;;;5052609;28;20068;-81
2022/01/10 10:20:11;;;;;;;17.48;11.25;;;;;;;;;;5068882;28;20060;-82
2022/01/10 10:22:40;;;;;;;17.10;11.63;;;;;;;;;;5069576;28;20056;-81
2022/01/10 10:25:07;;;;;;;18.50;11.40;;;;;;;;;;5068776;28;20119;-81
2022/01/10 10:27:41;;;;;;;21.50;12.27;;;;;;;;;;5069236;28;20391;-81
2022/01/10 10:30:15;;;;;;;17.63;10.57;;;;;;;;;;5052104;28;20036;-81
2022/01/10 10:32:41;;;;;;;19.52;10.80;;;;;;;;;;5048855;28;20465;-81
2022/01/10 10:35:08;;;;;;;20.60;11.73;;;;;;;;;;5031662;28;20053;-81
2022/01/10 10:37:38;;;;;;;18.35;11.15;;;;;;;;;;5049478;28;20063;-81
2022/01/10 10:40:08;;;;;;;13.63;10.95;;;;;;;;;;5049220;28;20033;-80
2022/01/10 10:42:34;;;;;;;18.00;11.18;;;;;;;;;;5049449;28;20098;-80
2022/01/10 10:45:04;;;;;;;14.65;10.70;;;;;;;;;;5049304;28;20052;-80
2022/01/10 10:47:30;;;;;;;14.10;10.95;;;;;;;;;;5048607;28;20045;-81
2022/01/10 10:49:57;;;;;;;16.08;11.02;;;;;;;;;;5049742;28;20045;-81
2022/01/10 10:52:24;;;;;;;19.83;11.63;;;;;;;;;;5053825;28;20056;-80
2022/01/10 10:54:50;;;;;;;17.63;11.90;;;;;;;;;;5016014;28;20509;-80
2022/01/10 10:57:17;;;;;;;13.60;10.23;;;;;;;;;;5048269;28;20103;-80
2022/01/10 10:59:44;;;;;;;18.10;11.32;;;;;;;;;;5048249;28;20099;-80
2022/01/10 11:02:10;;;;;;;17.50;11.77;;;;;;;;;;5048546;28;20052;-80
2022/01/10 11:04:36;;;;;;;15.60;11.00;;;;;;;;;;5050910;28;20132;-80
2022/01/10 11:07:03;;;;;;;21.20;11.93;;;;;;;;;;5050219;28;20049;-80
2022/01/10 11:09:29;;;;;;;15.88;11.70;;;;;;;;;;5052517;28;20079;-80
2022/01/10 11:11:55;;;;;;;17.30;11.30;;;;;;;;;;5051411;28;20072;-81
2022/01/10 11:14:24;;;;;;;17.48;11.65;;;;;;;;;;5051823;28;20512;-81
2022/01/10 11:16:52;;;;;;;18.15;11.82;;;;;;;;;;5052428;28;20468;-80
2022/01/10 11:19:23;;;;;;;18.45;12.20;;;;;;;;;;5051590;28;20045;-80
2022/01/10 11:22:05;;;;;;;19.08;11.65;;;;;;;;;;5050916;28;20041;-79
2022/01/10 11:24:47;;;;;;;17.85;12.23;;;;;;;;;;5052847;28;20120;-80
2022/01/10 11:27:32;;;;;;;20.88;14.20;;;;;;;;;;5050805;28;20076;-80
2022/01/10 11:29:58;;;;;;;18.30;13.00;;;;;;;;;;5052337;28;20120;-81
2022/01/10 11:32:42;;;;;;;20.90;13.35;;;;;;;;;;5053430;28;20048;-80
2022/01/10 11:35:09;;;;;;;18.13;13.25;;;;;;;;;;5051289;28;20102;-80
2022/01/10 11:37:35;;;;;;;19.80;13.43;;;;;;;;;;5053721;28;20048;-79
2022/01/10 11:40:01;;;;;;;20.95;13.38;;;;;;;;;;5034581;28;20090;-79
2022/01/10 11:42:28;;;;;;;22.55;14.00;;;;;;;;;;5051124;28;20508;-79
2022/01/10 11:45:11;;;;;;;20.55;13.43;;;;;;;;;;5067389;28;20107;-80
2022/01/10 11:47:56;;;;;;;20.40;13.90;;;;;;;;;;5052585;28;20574;-80
2022/01/10 11:50:32;;;;;;;21.83;13.57;;;;;;;;;;5067736;28;20115;-80
2022/01/10 11:53:00;;;;;;;22.33;14.88;;;;;;;;;;5050213;28;20400;-80
2022/01/10 11:55:33;;;;;;;23.20;15.15;;;;;;;;;;5051067;28;20045;-80
2022/01/10 11:58:06;;;;;;;26.90;14.93;;;;;;;;;;5050336;28;20044;-80
2022/01/10 12:00:36;;;;;;;22.70;15.55;;;;;;;;;;5051358;28;20474;-80
2022/01/10 12:03:02;;;;;;;24.17;16.67;;;;;;;;;;5052135;28;20067;-80
2022/01/10 12:05:31;;;;;;;28.02;17.13;;;;;;;;;;5052144;28;20048;-79
2022/01/10 12:07:57;;;;;;;23.50;15.75;;;;;;;;;;5050572;28;20377;-79
2022/01/10 12:10:23;;;;;;;28.35;16.65;;;;;;;;;;5052248;28;20040;-79
2022/01/10 12:12:54;;;;;;;29.00;17.20;;;;;;;;;;5051220;28;20071;-79
2022/01/10 12:15:20;;;;;;;28.08;16.80;;;;;;;;;;5052138;28;20045;-79
2022/01/10 12:17:47;;;;;;;28.00;16.17;;;;;;;;;;5051735;28;20033;-79
2022/01/10 12:20:13;;;;;;;27.63;17.10;;;;;;;;;;5050730;28;20044;-79
2022/01/10 12:22:39;;;;;;;31.27;17.65;;;;;;;;;;5051873;28;20045;-80
2022/01/10 12:25:08;;;;;;;27.38;17.60;;;;;;;;;;5051956;28;20099;-80
2022/01/10 12:27:35;;;;;;;34.63;18.90;;;;;;;;;;5050232;28;20041;-79
2022/01/10 12:30:03;;;;;;;30.13;17.73;;;;;;;;;;5049820;28;20040;-79
2022/01/10 12:32:33;;;;;;;32.47;18.40;;;;;;;;;;5070660;28;20051;-79
2022/01/10 12:34:59;;;;;;;31.63;18.38;;;;;;;;;;5070929;28;20086;-81
2022/01/10 12:37:25;;;;;;;28.88;17.50;;;;;;;;;;5071729;28;20088;-81
2022/01/10 12:39:51;;;;;;;29.90;18.35;;;;;;;;;;5070505;28;20459;-81
2022/01/10 12:42:18;;;;;;;31.70;18.73;;;;;;;;;;5053936;28;20062;-80
2022/01/10 12:44:45;;;;;;;32.13;19.23;;;;;;;;;;5070377;28;20428;-79
2022/01/10 12:47:11;;;;;;;30.20;19.17;;;;;;;;;;5069817;28;20037;-79
2022/01/10 12:49:39;;;;;;;35.78;20.35;;;;;;;;;;5054035;28;20040;-80
2022/01/10 12:52:05;;;;;;;36.30;20.55;;;;;;;;;;5070626;28;20153;-80
2022/01/10 12:54:32;;;;;;;40.30;21.15;;;;;;;;;;5069964;28;20048;-81
2022/01/10 12:56:59;;;;;;;34.70;20.20;;;;;;;;;;5069931;28;20071;-81
2022/01/10 12:59:26;;;;;;;35.83;21.02;;;;;;;;;;5071331;28;20048;-79
2022/01/10 13:01:53;;;;;;;34.97;20.27;;;;;;;;;;5070697;28;20051;-79
2022/01/10 13:04:24;;;;;;;36.63;21.60;;;;;;;;;;5069711;28;20044;-80
2022/01/10 13:06:51;;;;;;;38.80;21.27;;;;;;;;;;5070306;28;20477;-80
2022/01/10 13:09:17;;;;;;;34.00;20.65;;;;;;;;;;5052362;28;20503;-80
2022/01/10 13:11:50;;;;;;;33.15;20.98;;;;;;;;;;5070717;28;20044;-79
2022/01/10 13:14:18;;;;;;;39.72;21.23;;;;;;;;;;5069180;28;20048;-80
2022/01/10 13:16:45;;;;;;;33.90;21.55;;;;;;;;;;5069816;28;20489;-80
2022/01/10 13:19:18;;;;;;;38.22;21.13;;;;;;;;;;5052360;28;20043;-80
2022/01/10 13:21:50;;;;;;;34.70;20.80;;;;;;;;;;5069846;28;20461;-80
2022/01/10 13:24:20;;;;;;;40.70;21.60;;;;;;;;;;5071386;28;20070;-79
2022/01/10 13:27:05;;;;;;;39.45;21.65;;;;;;;;;;5070581;28;20044;-81
2022/01/10 13:29:31;;;;;;;38.53;21.90;;;;;;;;;;5053305;28;20051;-81
2022/01/10 13:31:57;;;;;;;42.58;21.92;;;;;;;;;;5070865;28;20040;-79
2022/01/10 13:34:26;;;;;;;39.90;21.80;;;;;;;;;;5069862;28;20076;-80
2022/01/10 13:36:53;;;;;;;40.72;21.23;;;;;;;;;;5069727;28;20060;-79
2022/01/10 13:39:22;;;;;;;36.78;21.65;;;;;;;;;;5054131;28;20473;-79
2022/01/10 13:42:01;;;;;;;41.72;21.38;;;;;;;;;;5071329;28;20048;-81
2022/01/10 13:44:27;;;;;;;42.88;22.10;;;;;;;;;;5071611;28;20048;-81
2022/01/10 13:47:05;;;;;;;39.47;22.30;;;;;;;;;;5053823;28;20496;-79
2022/01/10 13:49:31;;;;;;;43.38;23.20;;;;;;;;;;5070829;28;20048;-81
2022/01/10 13:52:10;;;;;;;48.80;25.83;;;;;;;;;;5068818;28;20052;-81
2022/01/10 13:54:37;;;;;;;58.10;27.88;;;;;;;;;;5068985;28;20052;-81
2022/01/10 13:57:16;;;;;;;50.28;27.30;;;;;;;;;;5070288;28;20066;-81
2022/01/10 13:59:42;;;;;;;51.22;27.27;;;;;;;;;;5069378;28;20119;-81
2022/01/10 14:02:09;;;;;;;49.88;26.40;;;;;;;;;;5068373;28;20047;-79
2022/01/10 14:04:36;;;;;;;49.35;26.00;;;;;;;;;;5069016;28;20547;-79
2022/01/10 14:07:14;;;;;;;45.80;25.60;;;;;;;;;;5069485;28;20033;-79
2022/01/10 14:09:40;;;;;;;42.85;25.55;;;;;;;;;;5070473;28;20051;-81
2022/01/10 14:12:06;;;;;;;45.50;25.10;;;;;;;;;;5068910;28;20049;-81
2022/01/10 14:14:33;;;;;;;45.20;25.85;;;;;;;;;;5052518;28;20045;-81
2022/01/10 14:16:59;;;;;;;50.42;27.33;;;;;;;;;;5085928;28;20097;-79
2022/01/10 14:19:26;;;;;;;47.67;26.80;;;;;;;;;;5070046;28;20067;-79
2022/01/10 14:21:53;;;;;;;52.45;26.70;;;;;;;;;;5069162;28;20048;-80
2022/01/10 14:24:19;;;;;;;48.40;27.33;;;;;;;;;;5069205;28;20391;-81
2022/01/10 14:26:49;;;;;;;47.35;26.63;;;;;;;;;;5070038;28;20131;-81
2022/01/10 14:29:15;;;;;;;45.25;27.25;;;;;;;;;;5069948;28;20362;-80